MST,Max TemperatureF,Mean TemperatureF,Min TemperatureF,Max Dew PointF,MeanDew PointF,Min DewpointF,Max Humidity, Mean Humidity, Min Humidity, Max Sea Level PressureIn, Mean Sea Level PressureIn, Min Sea Level PressureIn, Max VisibilityMiles, Mean VisibilityMiles, Min VisibilityMiles, Max Wind SpeedMPH, Mean Wind SpeedMPH, Max Gust SpeedMPH,PrecipitationIn, CloudCover, Events, WindDirDegrees
2013-8-1,96,89,82,65,60,55,51,39,26,30.07,29.89,29.83,10,10,10,25,10,32,T,1,Rain-Thunderstorm,145
2013-8-2,93,86,79,67,62,59,55,44,33,30.01,29.88,29.82,10,10,10,18,8,22,T,1,Thunderstorm,151
2013-8-3,100,87,74,61,57,52,64,42,20,29.94,29.86,29.80,10,10,10,18,8,23,0.00,0,,180
2013-8-4,99,90,81,61,57,53,45,33,20,30.02,29.87,29.81,10,10,10,15,7,19,0.00,1,Thunderstorm,147
2013-8-5,95,83,70,68,61,51,84,54,24,30.10,29.91,29.80,10,10,7,22,10,29,0.17,3,Rain-Thunderstorm,184
2013-8-6,84,77,70,68,64,59,90,68,46,30.08,29.94,29.90,10,10,10,18,6,26,0.03,4,Rain,259
2013-8-7,96,83,70,65,57,46,84,52,19,29.99,29.91,29.83,10,10,10,17,5,23,0.00,1,,191
2013-8-8,100,86,72,59,46,31,61,35,9,30.03,29.83,29.75,10,10,10,16,6,20,0.00,0,,173
2013-8-9,104,88,71,48,42,38,44,28,12,29.85,29.80,29.74,10,10,10,20,9,33,0.00,0,,186
2013-8-10,101,88,75,42,38,33,31,21,11,29.93,29.86,29.79,10,10,10,14,5,17,0.00,1,,186
2013-8-11,100,87,74,59,53,36,43,30,17,29.90,29.83,29.74,10,10,10,22,8,28,0.00,1,,112
2013-8-12,105,91,76,61,45,29,52,31,9,29.85,29.80,29.73,10,10,10,17,7,24,0.00,0,,179
2013-8-13,105,89,73,43,36,29,33,21,9,29.91,29.83,29.75,10,10,10,16,7,21,0.00,0,,289
2013-8-14,105,91,77,61,49,36,47,30,12,29.88,29.82,29.72,10,10,10,28,7,36,0.00,0,,190
2013-8-15,105,93,81,58,54,48,43,30,16,29.99,29.84,29.74,10,10,10,21,6,25,0.00,1,Thunderstorm,113
2013-8-16,108,95,82,61,54,40,44,27,10,29.97,29.84,29.74,10,10,10,18,7,24,0.00,1,Thunderstorm,186
2013-8-17,108,93,78,61,52,39,54,33,12,29.92,29.82,29.70,10,10,8,22,8,31,T,1,Rain-Thunderstorm,151
2013-8-18,107,95,82,58,53,45,40,27,13,29.98,29.86,29.79,10,10,10,26,7,33,0.00,0,Thunderstorm,195
2013-8-19,105,93,81,58,52,45,45,30,14,29.89,29.82,29.74,10,10,10,20,4,27,0.00,0,,191
2013-8-20,103,90,77,63,57,51,51,35,18,29.95,29.84,29.74,10,10,7,31,9,40,0.02,2,Rain-Thunderstorm,157
2013-8-21,98,88,78,62,57,52,58,41,23,29.90,29.84,29.78,10,10,10,14,7,19,0.00,1,,174
2013-8-22,102,91,79,62,57,50,52,36,19,29.95,29.84,29.72,10,10,10,25,6,29,0.00,0,Rain-Thunderstorm,180
2013-8-23,99,86,72,65,56,50,60,41,21,29.92,29.79,29.68,10,10,9,31,8,37,0.01,1,Rain-Thunderstorm,161
2013-8-24,92,83,74,69,61,54,87,58,28,30.03,29.86,29.78,10,10,8,32,11,41,0.03,3,Rain-Thunderstorm,126
2013-8-25,94,84,74,72,67,60,87,60,33,30.05,29.92,29.86,10,10,8,18,6,23,0.06,3,Rain-Thunderstorm,131
2013-8-26,100,87,74,71,65,56,93,61,28,29.98,29.87,29.77,10,10,10,25,4,34,0.01,1,Rain-Thunderstorm,207
2013-8-27,103,86,69,67,58,47,84,51,17,29.84,29.76,29.68,10,10,10,22,8,30,0.00,0,,141
2013-8-28,100,90,79,67,60,55,62,43,24,29.95,29.82,29.73,10,10,10,26,12,32,0.00,2,Thunderstorm,137
2013-8-29,87,80,73,71,68,64,82,65,48,30.13,30.00,29.90,10,10,1,20,5,24,0.15,5,Rain-Thunderstorm,174
2013-8-30,94,84,74,71,66,60,87,60,33,30.01,29.96,29.89,10,10,10,10,4,14,T,1,,103
2013-8-31,97,85,73,68,63,55,74,50,25,29.94,29.87,29.79,10,10,10,18,6,24,0.00,0,,287